sensor_id;sensor_type;location;lat;lon;timestamp;temperature;humidity
21590;DHT22;10957;50.968;6.828;2022-10-16T00:04:49;13.90;99.90
21590;DHT22;10957;50.968;6.828;2022-10-16T00:09:52;13.60;99.90
21590;DHT22;10957;50.968;6.828;2022-10-16T00:14:53;13.70;99.90
21590;DHT22;10957;50.968;6.828;2022-10-16T00:19:54;13.80;99.90
21590;DHT22;10957;50.968;6.828;2022-10-16T00:25:13;13.50;99.90
21590;DHT22;10957;50.968;6.828;2022-10-16T00:30:13;13.50;99.90
21590;DHT22;10957;50.968;6.828;2022-10-16T00:35:14;13.40;99.90
21590;DHT22;10957;50.968;6.828;2022-10-16T00:40:15;13.70;99.90
21590;DHT22;10957;50.968;6.828;2022-10-16T00:45:16;13.00;99.90
21590;DHT22;10957;50.968;6.828;2022-10-16T00:50:30;13.00;99.90
21590;DHT22;10957;50.968;6.828;2022-10-16T00:55:31;12.90;99.90
21590;DHT22;10957;50.968;6.828;2022-10-16T01:00:31;13.20;99.90
21590;DHT22;10957;50.968;6.828;2022-10-16T01:05:48;12.90;99.90
21590;DHT22;10957;50.968;6.828;2022-10-16T01:10:57;13.00;99.90
21590;DHT22;10957;50.968;6.828;2022-10-16T01:16:16;13.10;99.90
21590;DHT22;10957;50.968;6.828;2022-10-16T01:21:31;13.20;99.90
21590;DHT22;10957;50.968;6.828;2022-10-16T01:27:07;13.20;99.90
21590;DHT22;10957;50.968;6.828;2022-10-16T01:32:30;13.30;99.90
21590;DHT22;10957;50.968;6.828;2022-10-16T01:37:41;12.90;99.90
21590;DHT22;10957;50.968;6.828;2022-10-16T01:42:59;13.10;99.90
21590;DHT22;10957;50.968;6.828;2022-10-16T01:48:02;13.50;99.90
21590;DHT22;10957;50.968;6.828;2022-10-16T01:53:06;13.00;99.90
21590;DHT22;10957;50.968;6.828;2022-10-16T01:58:08;13.50;99.90
21590;DHT22;10957;50.968;6.828;2022-10-16T02:03:11;13.30;99.90
21590;DHT22;10957;50.968;6.828;2022-10-16T02:08:13;13.20;99.90
21590;DHT22;10957;50.968;6.828;2022-10-16T02:13:39;13.70;99.90
21590;DHT22;10957;50.968;6.828;2022-10-16T02:18:39;13.70;99.90
21590;DHT22;10957;50.968;6.828;2022-10-16T02:24:30;13.40;99.90
21590;DHT22;10957;50.968;6.828;2022-10-16T02:29:27;13.20;99.90
21590;DHT22;10957;50.968;6.828;2022-10-16T02:34:30;13.20;99.90
21590;DHT22;10957;50.968;6.828;2022-10-16T02:39:33;13.50;99.90
21590;DHT22;10957;50.968;6.828;2022-10-16T02:44:34;13.70;99.90
21590;DHT22;10957;50.968;6.828;2022-10-16T02:49:34;13.70;99.90
21590;DHT22;10957;50.968;6.828;2022-10-16T02:54:35;13.80;99.90
21590;DHT22;10957;50.968;6.828;2022-10-16T02:59:36;13.30;99.90
21590;DHT22;10957;50.968;6.828;2022-10-16T03:04:37;13.60;99.90
21590;DHT22;10957;50.968;6.828;2022-10-16T03:09:37;13.50;99.90
21590;DHT22;10957;50.968;6.828;2022-10-16T03:14:38;13.20;99.90
21590;DHT22;10957;50.968;6.828;2022-10-16T03:19:40;13.40;99.90
21590;DHT22;10957;50.968;6.828;2022-10-16T03:24:40;13.10;99.90
21590;DHT22;10957;50.968;6.828;2022-10-16T03:29:41;12.70;99.90
21590;DHT22;10957;50.968;6.828;2022-10-16T03:34:42;12.70;99.90
21590;DHT22;10957;50.968;6.828;2022-10-16T03:39:43;13.10;99.90
21590;DHT22;10957;50.968;6.828;2022-10-16T03:44:44;12.80;99.90
21590;DHT22;10957;50.968;6.828;2022-10-16T03:49:45;13.10;99.90
21590;DHT22;10957;50.968;6.828;2022-10-16T03:54:46;13.00;99.90
21590;DHT22;10957;50.968;6.828;2022-10-16T03:59:47;13.00;99.90
21590;DHT22;10957;50.968;6.828;2022-10-16T04:04:47;12.60;99.90
21590;DHT22;10957;50.968;6.828;2022-10-16T04:09:48;12.90;99.90
21590;DHT22;10957;50.968;6.828;2022-10-16T04:14:49;13.00;99.90
21590;DHT22;10957;50.968;6.828;2022-10-16T04:19:49;13.40;99.90
21590;DHT22;10957;50.968;6.828;2022-10-16T04:24:50;13.10;99.90
21590;DHT22;10957;50.968;6.828;2022-10-16T04:29:51;12.70;99.90
21590;DHT22;10957;50.968;6.828;2022-10-16T04:34:52;12.90;99.90
21590;DHT22;10957;50.968;6.828;2022-10-16T04:39:53;12.70;99.90
21590;DHT22;10957;50.968;6.828;2022-10-16T04:44:54;13.10;99.90
21590;DHT22;10957;50.968;6.828;2022-10-16T04:49:55;12.80;99.90
21590;DHT22;10957;50.968;6.828;2022-10-16T04:54:55;13.00;99.90
21590;DHT22;10957;50.968;6.828;2022-10-16T05:00:00;12.90;99.90
21590;DHT22;10957;50.968;6.828;2022-10-16T05:05:01;12.90;99.90
21590;DHT22;10957;50.968;6.828;2022-10-16T05:10:02;12.90;99.90
21590;DHT22;10957;50.968;6.828;2022-10-16T05:15:03;12.80;99.90
21590;DHT22;10957;50.968;6.828;2022-10-16T05:20:05;12.80;99.90
21590;DHT22;10957;50.968;6.828;2022-10-16T05:25:06;12.80;99.90
21590;DHT22;10957;50.968;6.828;2022-10-16T05:30:07;12.70;99.90
21590;DHT22;10957;50.968;6.828;2022-10-16T05:35:08;12.70;99.90
21590;DHT22;10957;50.968;6.828;2022-10-16T05:40:10;12.70;99.90
21590;DHT22;10957;50.968;6.828;2022-10-16T05:45:11;12.90;99.90
21590;DHT22;10957;50.968;6.828;2022-10-16T05:50:12;12.70;99.90
21590;DHT22;10957;50.968;6.828;2022-10-16T05:55:13;13.10;99.90
21590;DHT22;10957;50.968;6.828;2022-10-16T06:00:14;13.10;99.90
21590;DHT22;10957;50.968;6.828;2022-10-16T06:05:14;12.80;99.90
21590;DHT22;10957;50.968;6.828;2022-10-16T06:10:15;12.90;99.90
21590;DHT22;10957;50.968;6.828;2022-10-16T06:15:16;12.80;99.90
21590;DHT22;10957;50.968;6.828;2022-10-16T06:20:17;12.70;99.90
21590;DHT22;10957;50.968;6.828;2022-10-16T06:25:17;12.80;99.90
21590;DHT22;10957;50.968;6.828;2022-10-16T06:30:18;12.80;99.90
21590;DHT22;10957;50.968;6.828;2022-10-16T06:35:19;13.00;99.90
21590;DHT22;10957;50.968;6.828;2022-10-16T06:40:20;12.90;99.90
21590;DHT22;10957;50.968;6.828;2022-10-16T06:45:20;13.20;99.90
21590;DHT22;10957;50.968;6.828;2022-10-16T06:50:21;13.20;99.90
21590;DHT22;10957;50.968;6.828;2022-10-16T06:55:22;13.60;99.90
21590;DHT22;10957;50.968;6.828;2022-10-16T07:00:22;13.70;99.90
21590;DHT22;10957;50.968;6.828;2022-10-16T07:05:23;14.10;99.90
21590;DHT22;10957;50.968;6.828;2022-10-16T07:10:24;14.10;99.90
21590;DHT22;10957;50.968;6.828;2022-10-16T07:15:26;13.70;99.90
21590;DHT22;10957;50.968;6.828;2022-10-16T07:20:26;14.30;99.90
21590;DHT22;10957;50.968;6.828;2022-10-16T07:25:27;13.90;99.90
21590;DHT22;10957;50.968;6.828;2022-10-16T07:30:28;14.30;99.90
21590;DHT22;10957;50.968;6.828;2022-10-16T07:35:28;14.80;99.90
21590;DHT22;10957;50.968;6.828;2022-10-16T07:40:29;14.10;99.90
21590;DHT22;10957;50.968;6.828;2022-10-16T07:45:30;14.60;99.90
21590;DHT22;10957;50.968;6.828;2022-10-16T07:50:30;14.30;99.90
21590;DHT22;10957;50.968;6.828;2022-10-16T07:55:31;13.90;99.90
21590;DHT22;10957;50.968;6.828;2022-10-16T08:00:32;13.80;99.90
21590;DHT22;10957;50.968;6.828;2022-10-16T08:05:33;13.90;99.90
21590;DHT22;10957;50.968;6.828;2022-10-16T08:10:35;14.60;99.90
21590;DHT22;10957;50.968;6.828;2022-10-16T08:15:35;14.90;99.90
21590;DHT22;10957;50.968;6.828;2022-10-16T08:20:36;14.50;99.90
21590;DHT22;10957;50.968;6.828;2022-10-16T08:25:37;14.80;99.90
21590;DHT22;10957;50.968;6.828;2022-10-16T08:30:38;15.50;99.90
21590;DHT22;10957;50.968;6.828;2022-10-16T08:35:39;15.50;99.90
21590;DHT22;10957;50.968;6.828;2022-10-16T08:40:42;15.60;99.90
21590;DHT22;10957;50.968;6.828;2022-10-16T08:46:02;15.30;99.90
21590;DHT22;10957;50.968;6.828;2022-10-16T08:51:08;15.90;99.90
21590;DHT22;10957;50.968;6.828;2022-10-16T08:56:12;16.00;99.90
21590;DHT22;10957;50.968;6.828;2022-10-16T09:01:15;16.10;99.90
21590;DHT22;10957;50.968;6.828;2022-10-16T09:06:43;16.10;99.90
21590;DHT22;10957;50.968;6.828;2022-10-16T09:17:06;16.20;99.90
21590;DHT22;10957;50.968;6.828;2022-10-16T09:22:14;16.20;99.90
21590;DHT22;10957;50.968;6.828;2022-10-16T09:27:16;16.50;99.90
21590;DHT22;10957;50.968;6.828;2022-10-16T09:32:19;16.70;99.90
21590;DHT22;10957;50.968;6.828;2022-10-16T09:37:22;16.90;99.90
21590;DHT22;10957;50.968;6.828;2022-10-16T09:42:31;17.00;99.90
21590;DHT22;10957;50.968;6.828;2022-10-16T09:47:43;17.10;99.90
21590;DHT22;10957;50.968;6.828;2022-10-16T09:52:44;17.10;99.90
21590;DHT22;10957;50.968;6.828;2022-10-16T09:57:52;17.20;99.90
21590;DHT22;10957;50.968;6.828;2022-10-16T10:02:54;17.30;99.90
21590;DHT22;10957;50.968;6.828;2022-10-16T10:08:00;17.40;87.20
21590;DHT22;10957;50.968;6.828;2022-10-16T10:13:01;17.60;93.00
21590;DHT22;10957;50.968;6.828;2022-10-16T10:18:02;17.80;90.70
21590;DHT22;10957;50.968;6.828;2022-10-16T10:23:21;17.90;80.60
21590;DHT22;10957;50.968;6.828;2022-10-16T10:33:54;17.80;74.90
21590;DHT22;10957;50.968;6.828;2022-10-16T10:38:59;17.90;67.10
21590;DHT22;10957;50.968;6.828;2022-10-16T11:10:07;18.70;26.30
21590;DHT22;10957;50.968;6.828;2022-10-16T11:15:21;18.30;28.90
21590;DHT22;10957;50.968;6.828;2022-10-16T11:20:27;18.10;28.80
21590;DHT22;10957;50.968;6.828;2022-10-16T11:25:31;18.10;32.10
21590;DHT22;10957;50.968;6.828;2022-10-16T11:30:44;18.20;38.20
21590;DHT22;10957;50.968;6.828;2022-10-16T11:41:12;18.60;31.80
21590;DHT22;10957;50.968;6.828;2022-10-16T11:46:21;18.70;26.10
21590;DHT22;10957;50.968;6.828;2022-10-16T11:51:36;19.20;29.40
21590;DHT22;10957;50.968;6.828;2022-10-16T11:56:40;19.30;19.90
21590;DHT22;10957;50.968;6.828;2022-10-16T12:01:56;18.90;19.60
21590;DHT22;10957;50.968;6.828;2022-10-16T12:07:38;19.00;20.60
21590;DHT22;10957;50.968;6.828;2022-10-16T12:12:40;19.00;18.20
21590;DHT22;10957;50.968;6.828;2022-10-16T12:17:41;18.90;12.70
21590;DHT22;10957;50.968;6.828;2022-10-16T12:23:03;18.80;14.50
21590;DHT22;10957;50.968;6.828;2022-10-16T12:38:53;18.90;18.30
21590;DHT22;10957;50.968;6.828;2022-10-16T12:43:55;18.60;19.40
21590;DHT22;10957;50.968;6.828;2022-10-16T12:54:20;19.00;12.50
21590;DHT22;10957;50.968;6.828;2022-10-16T13:31:38;18.80;12.80
21590;DHT22;10957;50.968;6.828;2022-10-16T13:36:49;18.90;19.50
21590;DHT22;10957;50.968;6.828;2022-10-16T13:42:10;19.10;19.70
21590;DHT22;10957;50.968;6.828;2022-10-16T13:47:24;19.20;14.30
21590;DHT22;10957;50.968;6.828;2022-10-16T13:52:25;19.10;9.60
21590;DHT22;10957;50.968;6.828;2022-10-16T13:57:26;18.90;11.90
21590;DHT22;10957;50.968;6.828;2022-10-16T14:02:33;18.90;13.70
21590;DHT22;10957;50.968;6.828;2022-10-16T14:07:37;19.20;10.50
21590;DHT22;10957;50.968;6.828;2022-10-16T14:12:38;18.90;15.20
21590;DHT22;10957;50.968;6.828;2022-10-16T14:17:43;18.70;19.50
21590;DHT22;10957;50.968;6.828;2022-10-16T14:22:47;18.80;20.90
21590;DHT22;10957;50.968;6.828;2022-10-16T14:33:18;18.80;24.40
21590;DHT22;10957;50.968;6.828;2022-10-16T14:38:20;18.60;29.40
21590;DHT22;10957;50.968;6.828;2022-10-16T14:43:34;18.70;23.10
21590;DHT22;10957;50.968;6.828;2022-10-16T14:48:36;18.70;24.90
21590;DHT22;10957;50.968;6.828;2022-10-16T14:53:40;18.70;30.90
21590;DHT22;10957;50.968;6.828;2022-10-16T14:58:41;18.80;28.80
21590;DHT22;10957;50.968;6.828;2022-10-16T15:03:42;18.80;33.10
21590;DHT22;10957;50.968;6.828;2022-10-16T15:08:43;18.70;34.90
21590;DHT22;10957;50.968;6.828;2022-10-16T15:13:44;18.60;40.90
21590;DHT22;10957;50.968;6.828;2022-10-16T15:18:45;18.50;40.90
21590;DHT22;10957;50.968;6.828;2022-10-16T15:23:46;18.50;55.10
21590;DHT22;10957;50.968;6.828;2022-10-16T15:28:47;18.40;58.30
21590;DHT22;10957;50.968;6.828;2022-10-16T15:33:52;18.30;77.60
21590;DHT22;10957;50.968;6.828;2022-10-16T15:38:56;18.20;77.80
21590;DHT22;10957;50.968;6.828;2022-10-16T15:43:57;18.10;80.30
21590;DHT22;10957;50.968;6.828;2022-10-16T15:48:58;18.00;89.00
21590;DHT22;10957;50.968;6.828;2022-10-16T15:53:59;18.00;95.40
21590;DHT22;10957;50.968;6.828;2022-10-16T15:59:18;17.90;97.80
21590;DHT22;10957;50.968;6.828;2022-10-16T16:04:20;17.80;97.60
21590;DHT22;10957;50.968;6.828;2022-10-16T16:09:28;17.70;99.90
21590;DHT22;10957;50.968;6.828;2022-10-16T16:14:39;17.70;99.90
21590;DHT22;10957;50.968;6.828;2022-10-16T16:19:40;17.60;99.90
21590;DHT22;10957;50.968;6.828;2022-10-16T16:24:40;17.60;99.90
21590;DHT22;10957;50.968;6.828;2022-10-16T16:29:41;17.50;99.90
21590;DHT22;10957;50.968;6.828;2022-10-16T16:34:44;17.40;99.90
21590;DHT22;10957;50.968;6.828;2022-10-16T16:39:45;17.30;99.90
21590;DHT22;10957;50.968;6.828;2022-10-16T16:44:47;17.40;99.90
21590;DHT22;10957;50.968;6.828;2022-10-16T16:49:48;17.40;99.90
21590;DHT22;10957;50.968;6.828;2022-10-16T16:54:49;17.20;99.90
21590;DHT22;10957;50.968;6.828;2022-10-16T16:59:52;17.30;99.90
21590;DHT22;10957;50.968;6.828;2022-10-16T17:04:52;17.20;99.90
21590;DHT22;10957;50.968;6.828;2022-10-16T17:09:53;17.20;99.90
21590;DHT22;10957;50.968;6.828;2022-10-16T17:14:54;17.20;99.90
21590;DHT22;10957;50.968;6.828;2022-10-16T17:19:55;17.20;99.90
21590;DHT22;10957;50.968;6.828;2022-10-16T17:24:56;17.20;99.90
21590;DHT22;10957;50.968;6.828;2022-10-16T17:29:56;17.30;99.90
21590;DHT22;10957;50.968;6.828;2022-10-16T17:34:57;17.30;99.90
21590;DHT22;10957;50.968;6.828;2022-10-16T17:39:58;17.10;99.90
21590;DHT22;10957;50.968;6.828;2022-10-16T17:44:59;17.10;99.90
21590;DHT22;10957;50.968;6.828;2022-10-16T17:50:01;17.10;99.90
21590;DHT22;10957;50.968;6.828;2022-10-16T17:55:01;17.00;99.90
21590;DHT22;10957;50.968;6.828;2022-10-16T18:00:04;17.00;99.90
21590;DHT22;10957;50.968;6.828;2022-10-16T18:05:05;16.90;99.90
21590;DHT22;10957;50.968;6.828;2022-10-16T18:10:06;17.00;99.90
21590;DHT22;10957;50.968;6.828;2022-10-16T18:15:09;16.80;99.90
21590;DHT22;10957;50.968;6.828;2022-10-16T18:20:10;16.80;99.90
21590;DHT22;10957;50.968;6.828;2022-10-16T18:25:11;16.70;99.90
21590;DHT22;10957;50.968;6.828;2022-10-16T18:30:12;16.70;99.90
21590;DHT22;10957;50.968;6.828;2022-10-16T18:35:13;16.80;99.90
21590;DHT22;10957;50.968;6.828;2022-10-16T18:40:14;16.80;99.90
21590;DHT22;10957;50.968;6.828;2022-10-16T18:45:15;16.80;99.90
21590;DHT22;10957;50.968;6.828;2022-10-16T18:50:15;16.90;99.90
21590;DHT22;10957;50.968;6.828;2022-10-16T18:55:18;16.90;99.90
21590;DHT22;10957;50.968;6.828;2022-10-16T19:00:19;17.00;99.90
21590;DHT22;10957;50.968;6.828;2022-10-16T19:05:20;17.00;99.90
21590;DHT22;10957;50.968;6.828;2022-10-16T19:10:21;17.10;99.90
21590;DHT22;10957;50.968;6.828;2022-10-16T19:15:21;17.10;99.90
21590;DHT22;10957;50.968;6.828;2022-10-16T19:20:22;17.20;99.90
21590;DHT22;10957;50.968;6.828;2022-10-16T19:25:23;17.10;99.90
21590;DHT22;10957;50.968;6.828;2022-10-16T19:30:24;17.10;99.90
21590;DHT22;10957;50.968;6.828;2022-10-16T19:35:24;16.90;99.90
21590;DHT22;10957;50.968;6.828;2022-10-16T19:40:26;16.80;99.90
21590;DHT22;10957;50.968;6.828;2022-10-16T19:45:27;16.70;99.90
21590;DHT22;10957;50.968;6.828;2022-10-16T19:50:31;16.70;99.90
21590;DHT22;10957;50.968;6.828;2022-10-16T19:55:34;16.60;99.90
21590;DHT22;10957;50.968;6.828;2022-10-16T20:00:35;16.60;99.90
21590;DHT22;10957;50.968;6.828;2022-10-16T20:05:38;16.60;99.90
21590;DHT22;10957;50.968;6.828;2022-10-16T20:10:47;16.60;99.90
21590;DHT22;10957;50.968;6.828;2022-10-16T20:15:48;16.60;99.90
21590;DHT22;10957;50.968;6.828;2022-10-16T20:20:49;16.60;99.90
21590;DHT22;10957;50.968;6.828;2022-10-16T20:25:51;16.50;99.90
21590;DHT22;10957;50.968;6.828;2022-10-16T20:30:52;16.60;99.90
21590;DHT22;10957;50.968;6.828;2022-10-16T20:35:53;16.60;99.90
21590;DHT22;10957;50.968;6.828;2022-10-16T20:40:54;16.60;99.90
21590;DHT22;10957;50.968;6.828;2022-10-16T20:45:59;16.60;99.90
21590;DHT22;10957;50.968;6.828;2022-10-16T20:51:31;16.60;99.90
21590;DHT22;10957;50.968;6.828;2022-10-16T20:56:32;16.50;99.90
21590;DHT22;10957;50.968;6.828;2022-10-16T21:01:34;16.40;99.90
21590;DHT22;10957;50.968;6.828;2022-10-16T21:06:37;16.30;99.90
21590;DHT22;10957;50.968;6.828;2022-10-16T21:11:38;16.30;99.90
21590;DHT22;10957;50.968;6.828;2022-10-16T21:16:39;16.10;99.90
21590;DHT22;10957;50.968;6.828;2022-10-16T21:21:39;15.90;99.90
21590;DHT22;10957;50.968;6.828;2022-10-16T21:26:40;15.80;99.90
21590;DHT22;10957;50.968;6.828;2022-10-16T21:31:41;15.70;99.90
21590;DHT22;10957;50.968;6.828;2022-10-16T21:36:42;15.70;99.90
21590;DHT22;10957;50.968;6.828;2022-10-16T21:41:46;15.60;99.90
21590;DHT22;10957;50.968;6.828;2022-10-16T21:46:48;15.60;99.90
21590;DHT22;10957;50.968;6.828;2022-10-16T21:51:49;15.40;99.90
21590;DHT22;10957;50.968;6.828;2022-10-16T21:56:50;15.30;99.90
21590;DHT22;10957;50.968;6.828;2022-10-16T22:01:55;15.20;99.90
21590;DHT22;10957;50.968;6.828;2022-10-16T22:06:56;15.40;99.90
21590;DHT22;10957;50.968;6.828;2022-10-16T22:11:56;15.40;99.90
21590;DHT22;10957;50.968;6.828;2022-10-16T22:16:57;15.70;99.90
21590;DHT22;10957;50.968;6.828;2022-10-16T22:21:58;15.30;99.90
21590;DHT22;10957;50.968;6.828;2022-10-16T22:27:00;15.40;99.90
21590;DHT22;10957;50.968;6.828;2022-10-16T22:32:01;16.00;99.90
21590;DHT22;10957;50.968;6.828;2022-10-16T22:37:02;15.80;99.90
21590;DHT22;10957;50.968;6.828;2022-10-16T22:42:02;15.70;99.90
21590;DHT22;10957;50.968;6.828;2022-10-16T22:47:03;15.40;99.90
21590;DHT22;10957;50.968;6.828;2022-10-16T22:52:04;15.50;99.90
21590;DHT22;10957;50.968;6.828;2022-10-16T22:57:05;15.70;99.90
21590;DHT22;10957;50.968;6.828;2022-10-16T23:02:05;15.80;99.90
21590;DHT22;10957;50.968;6.828;2022-10-16T23:07:06;15.70;99.90
21590;DHT22;10957;50.968;6.828;2022-10-16T23:12:07;15.70;99.90
21590;DHT22;10957;50.968;6.828;2022-10-16T23:17:08;15.70;99.90
21590;DHT22;10957;50.968;6.828;2022-10-16T23:22:08;15.50;99.90
21590;DHT22;10957;50.968;6.828;2022-10-16T23:27:09;15.90;99.90
21590;DHT22;10957;50.968;6.828;2022-10-16T23:32:10;16.00;99.90
21590;DHT22;10957;50.968;6.828;2022-10-16T23:37:10;16.10;99.90
21590;DHT22;10957;50.968;6.828;2022-10-16T23:42:11;16.10;99.90
21590;DHT22;10957;50.968;6.828;2022-10-16T23:47:12;16.30;99.90
21590;DHT22;10957;50.968;6.828;2022-10-16T23:52:12;16.20;99.90
21590;DHT22;10957;50.968;6.828;2022-10-16T23:57:13;16.00;99.90
